Time,TemperatureF,DewpointF,PressureIn,WindDirection,WindDirectionDegrees,WindSpeedMPH,WindSpeedGustMPH,Humidity,HourlyPrecipIn,Conditions,Clouds,dailyrainin,SoftwareType,DateUTC
2013-03-25 00:00:00,23.6,-2.7,30.26,NNE,20,2.0,2.0,31,0.00,,,0.00,Wunderground v.1.15,2013-03-25 06:00:00,
2013-03-25 00:30:00,23.2,-3.7,30.26,NE,44,3.0,3.0,30,0.00,,,0.00,Wunderground v.1.15,2013-03-25 06:30:00,
2013-03-25 01:00:00,22.7,-2.8,30.26,NE,44,2.0,2.0,32,0.00,,,0.00,Wunderground v.1.15,2013-03-25 07:00:00,
2013-03-25 01:30:00,23.5,-2.8,30.26,NE,41,2.0,3.0,31,0.00,,,0.00,Wunderground v.1.15,2013-03-25 07:30:00,
2013-03-25 02:00:00,23.6,-4.1,30.24,NNE,27,2.0,2.0,29,0.00,,,0.00,Wunderground v.1.15,2013-03-25 08:00:00,
2013-03-25 02:30:00,23.8,-3.9,30.23,NNE,24,3.0,3.0,29,0.00,,,0.00,Wunderground v.1.15,2013-03-25 08:30:00,
2013-03-25 03:00:00,24.1,-5.1,30.22,NNE,25,2.0,2.0,27,0.00,,,0.00,Wunderground v.1.15,2013-03-25 09:00:00,
2013-03-25 03:30:00,23.8,-4.6,30.20,NNE,25,2.0,2.0,28,0.00,,,0.00,Wunderground v.1.15,2013-03-25 09:30:00,
2013-03-25 04:30:00,23.9,-5.3,30.22,NNE,25,3.0,5.0,27,0.00,,,0.00,Wunderground v.1.15,2013-03-25 10:30:00,
2013-03-25 05:00:00,23.6,-6.3,30.23,NE,52,2.0,2.0,26,0.00,,,0.00,Wunderground v.1.15,2013-03-25 11:00:00,
2013-03-25 05:30:00,23.0,-6.1,30.23,NE,41,2.0,2.0,27,0.00,,,0.00,Wunderground v.1.15,2013-03-25 11:30:00,
2013-03-25 06:00:00,23.5,-8.9,30.21,NNE,20,2.0,2.0,23,0.00,,,0.00,Wunderground v.1.15,2013-03-25 12:00:00,
2013-03-25 06:30:00,23.5,-6.4,30.25,NNE,20,1.0,1.0,26,0.00,,,0.00,Wunderground v.1.15,2013-03-25 12:30:00,
2013-03-25 07:00:00,23.5,-6.4,30.26,NNE,20,0.0,0.0,26,0.00,,,0.00,Wunderground v.1.15,2013-03-25 13:00:00,
2013-03-25 07:30:00,20.2,-5.0,30.33,NNE,20,0.0,1.0,32,0.00,,,0.00,Wunderground v.1.15,2013-03-25 13:30:00,
2013-03-25 08:00:00,18.1,-2.2,30.36,NNE,20,0.0,0.0,40,0.00,,,0.00,Wunderground v.1.15,2013-03-25 14:00:00,
2013-03-25 08:30:00,18.6,-4.6,30.39,NNE,20,1.0,1.0,35,0.00,,,0.00,Wunderground v.1.15,2013-03-25 14:30:00,
2013-03-25 09:30:00,26.0,-7.7,30.36,ENE,76,3.0,3.0,22,0.00,,,0.00,Wunderground v.1.15,2013-03-25 15:30:00,
2013-03-25 10:00:00,27.6,-3.7,30.33,SW,219,4.0,4.0,25,0.00,,,0.00,Wunderground v.1.15,2013-03-25 16:00:00,
2013-03-25 10:30:00,30.4,-3.1,30.34,SSW,196,5.0,10.0,23,0.00,,,0.00,Wunderground v.1.15,2013-03-25 16:30:00,
2013-03-25 11:00:00,31.3,-12.5,30.32,SW,226,5.0,7.0,14,0.00,,,0.00,Wunderground v.1.15,2013-03-25 17:00:00,
2013-03-25 11:30:00,33.5,-9.3,30.31,NNW,343,5.0,5.0,15,0.00,,,0.00,Wunderground v.1.15,2013-03-25 17:30:00,
2013-03-25 12:00:00,36.0,-3.5,30.30,SSE,154,3.0,6.0,18,0.00,,,0.00,Wunderground v.1.15,2013-03-25 18:00:00,
2013-03-25 12:30:00,34.7,-5.8,30.29,WNW,302,7.0,7.0,17,0.00,,,0.00,Wunderground v.1.15,2013-03-25 18:30:00,
2013-03-25 13:00:00,39.3,-6.0,30.27,SE,130,4.0,5.0,14,0.00,,,0.00,Wunderground v.1.15,2013-03-25 19:00:00,
2013-03-25 13:30:00,38.3,-11.8,30.27,SSE,162,8.0,8.0,11,0.00,,,0.00,Wunderground v.1.15,2013-03-25 19:30:00,
2013-03-25 14:00:00,41.2,-4.5,30.22,NE,51,4.0,4.0,14,0.00,,,0.00,Wunderground v.1.15,2013-03-25 20:00:00,
2013-03-25 14:30:00,40.8,-3.4,30.19,North,353,4.0,4.0,15,0.00,,,0.00,Wunderground v.1.15,2013-03-25 20:30:00,
2013-03-25 15:00:00,42.6,-1.9,30.20,South,184,3.0,3.0,15,0.00,,,0.00,Wunderground v.1.15,2013-03-25 21:00:00,
2013-03-25 15:30:00,42.2,-0.9,30.18,SSE,147,5.0,11.0,16,0.00,,,0.00,Wunderground v.1.15,2013-03-25 21:30:00,
2013-03-25 16:00:00,43.6,0.3,30.17,NE,44,3.0,3.0,16,0.00,,,0.00,Wunderground v.1.15,2013-03-25 22:00:00,
2013-03-25 16:30:00,43.9,0.5,30.16,NE,51,4.0,5.0,16,0.00,,,0.00,Wunderground v.1.15,2013-03-25 22:30:00,
2013-03-25 17:00:00,43.6,1.6,30.16,ENE,65,3.0,5.0,17,0.00,,,0.00,Wunderground v.1.15,2013-03-25 23:00:00,
2013-03-25 17:30:00,41.5,3.3,30.16,ENE,69,5.0,5.0,20,0.00,,,0.00,Wunderground v.1.15,2013-03-25 23:30:00,
2013-03-25 18:00:00,42.9,3.4,30.20,NNE,30,2.0,3.0,19,0.00,,,0.00,Wunderground v.1.15,2013-03-26 00:00:00,
2013-03-25 18:30:00,38.6,3.9,30.23,SW,227,3.0,3.0,23,0.00,,,0.00,Wunderground v.1.15,2013-03-26 00:30:00,
2013-03-25 19:00:00,37.9,5.1,30.24,NNE,32,2.0,2.0,25,0.00,,,0.00,Wunderground v.1.15,2013-03-26 01:00:00,
2013-03-25 19:30:00,37.2,5.4,30.30,NE,51,1.0,1.0,26,0.00,,,0.00,Wunderground v.1.15,2013-03-26 01:30:00,
2013-03-25 20:00:00,35.6,4.8,30.32,NE,34,0.0,0.0,27,0.00,,,0.00,Wunderground v.1.15,2013-03-26 02:00:00,
2013-03-25 20:30:00,35.2,5.3,30.29,NE,34,0.0,0.0,28,0.00,,,0.00,Wunderground v.1.15,2013-03-26 02:30:00,
2013-03-25 21:00:00,32.8,5.4,30.30,NE,34,0.0,0.0,31,0.00,,,0.00,Wunderground v.1.15,2013-03-26 03:00:00,
2013-03-25 21:30:00,31.2,9.1,30.29,NE,34,0.0,0.0,39,0.00,,,0.00,Wunderground v.1.15,2013-03-26 03:30:00,
2013-03-25 22:00:00,32.4,7.7,30.29,NE,34,0.0,0.0,35,0.00,,,0.00,Wunderground v.1.15,2013-03-26 04:00:00,
2013-03-25 22:30:00,34.0,11.6,30.27,NE,34,0.0,0.0,39,0.00,,,0.00,Wunderground v.1.15,2013-03-26 04:30:00,
2013-03-25 23:00:00,32.4,7.1,30.27,NE,34,0.0,0.0,34,0.00,,,0.00,Wunderground v.1.15,2013-03-26 05:00:00,
2013-03-25 23:30:00,32.4,8.4,30.24,NE,34,0.0,2.0,36,0.00,,,0.00,Wunderground v.1.15,2013-03-26 05:30:00,